Terminal Aerodrome Forecast
Issued by NWS Cleveland, OH

Current Version | Previous Version | Text Only | Print | Product List | Glossary On
Versions: 1 2 3 4 5 6 7 8 9 10 11 12 13 14 15 16 17 18 19
000
FTUS41 KCLE 281700
TAFYNG
TAF
KYNG 281729Z 2818/0118 VRB03KT P6SM BKN120 OVC250
     FM010500 11004KT P6SM OVC050
     FM010700 12004KT 4SM -SN SCT015 OVC025
      TEMPO 0108/0112 2SM -SN OVC015
     FM011200 VRB05KT 3/4SM -SN OVC008=

USA.gov is the U.S. government's official web portal to all federal, state and local government web resources and services.